createdAt,value
2023-04-08T00:00:25.479Z,8.48
2023-04-08T00:02:53.059Z,8.48
2023-04-08T00:05:20.863Z,8.49
2023-04-08T00:07:48.738Z,8.48
2023-04-08T00:10:16.657Z,8.48
2023-04-08T00:12:44.342Z,8.47
2023-04-08T00:15:11.902Z,8.47
2023-04-08T00:17:39.993Z,8.46
2023-04-08T00:20:08.212Z,8.46
2023-04-08T00:22:36.588Z,8.46
2023-04-08T00:25:06.803Z,8.47
2023-04-08T00:27:34.386Z,8.48
2023-04-08T00:30:03.394Z,8.48
2023-04-08T00:32:31.046Z,8.49
2023-04-08T00:34:58.886Z,8.48
2023-04-08T00:37:27.140Z,8.50
2023-04-08T00:39:54.759Z,8.49
2023-04-08T00:42:22.360Z,8.50
2023-04-08T00:44:50.327Z,8.53
2023-04-08T00:47:18.443Z,8.53
2023-04-08T00:49:46.017Z,8.56
2023-04-08T00:52:14.053Z,8.57
2023-04-08T00:54:41.819Z,8.59
2023-04-08T00:57:09.662Z,8.59
2023-04-08T00:59:37.499Z,8.60
2023-04-08T01:02:43.178Z,8.61
2023-04-08T01:05:48.729Z,8.58
2023-04-08T01:08:17.947Z,8.58
2023-04-08T01:10:51.695Z,8.60
2023-04-08T01:13:25.433Z,8.61
2023-04-08T01:15:55.374Z,8.61
2023-04-08T01:18:24.153Z,8.63
2023-04-08T01:20:54.644Z,8.64
2023-04-08T01:23:41.176Z,8.64
2023-04-08T01:26:21.440Z,8.64
2023-04-08T01:28:54.932Z,8.63
2023-04-08T01:31:26.496Z,8.63
2023-04-08T01:33:56.372Z,8.63
2023-04-08T01:36:26.357Z,8.63
2023-04-08T01:38:54.154Z,8.63
2023-04-08T01:41:27.608Z,8.65
2023-04-08T01:44:28.608Z,8.63
2023-04-08T01:47:05.586Z,8.60
2023-04-08T01:49:51.773Z,8.60
2023-04-08T01:55:48.655Z,8.54
2023-04-08T01:58:31.496Z,8.53
2023-04-08T02:01:00.610Z,8.50
2023-04-08T02:03:31.120Z,8.51
2023-04-08T02:05:59.760Z,8.49
2023-04-08T02:08:27.354Z,8.48
2023-04-08T02:10:57.155Z,8.48
2023-04-08T02:13:25.808Z,8.46
2023-04-08T02:16:05.056Z,8.45
2023-04-08T02:18:39.113Z,8.42
2023-04-08T02:21:15.811Z,8.40
2023-04-08T02:23:51.424Z,8.39
2023-04-08T02:26:22.368Z,8.37
2023-04-08T02:28:52.495Z,8.35
2023-04-08T02:31:26.295Z,8.35
2023-04-08T02:33:56.298Z,8.32
2023-04-08T02:36:25.956Z,8.29
2023-04-08T02:38:53.631Z,8.29
2023-04-08T02:41:21.367Z,8.27
2023-04-08T02:43:49.389Z,8.23
2023-04-08T02:46:17.120Z,8.22
2023-04-08T02:48:44.985Z,8.21
2023-04-08T02:51:12.703Z,8.19
2023-04-08T02:53:40.493Z,8.17
2023-04-08T02:56:11.880Z,8.17
2023-04-08T02:58:39.523Z,8.13
2023-04-08T03:01:08.975Z,8.11
2023-04-08T03:03:37.100Z,8.11
2023-04-08T03:06:05.000Z,8.06
2023-04-08T03:08:33.751Z,8.03
2023-04-08T03:11:01.474Z,7.97
2023-04-08T03:13:29.830Z,7.94
2023-04-08T03:15:57.861Z,7.88
2023-04-08T03:18:25.959Z,7.83
2023-04-08T03:20:53.698Z,7.77
2023-04-08T03:23:21.271Z,7.70
2023-04-08T03:25:48.871Z,7.61
2023-04-08T03:28:16.739Z,7.54
2023-04-08T03:30:44.366Z,7.48
2023-04-08T03:33:12.054Z,7.44
2023-04-08T03:35:40.913Z,7.39
2023-04-08T03:38:08.802Z,7.34
2023-04-08T03:40:36.424Z,7.30
2023-04-08T03:43:05.825Z,7.24
2023-04-08T03:45:33.448Z,7.22
2023-04-08T03:48:01.113Z,7.21
2023-04-08T03:50:29.015Z,7.19
2023-04-08T03:52:56.594Z,7.16
2023-04-08T03:55:24.202Z,7.14
2023-04-08T03:57:52.033Z,7.13
2023-04-08T04:00:19.991Z,7.13
2023-04-08T04:02:47.688Z,7.13
2023-04-08T04:05:15.531Z,7.12
2023-04-08T04:07:43.105Z,7.13
2023-04-08T04:10:11.841Z,7.14
2023-04-08T04:12:39.643Z,7.15
2023-04-08T04:15:07.941Z,7.17
2023-04-08T04:17:35.884Z,7.18
2023-04-08T04:20:07.626Z,7.20
2023-04-08T04:22:35.173Z,7.16
2023-04-08T04:25:02.678Z,7.18
2023-04-08T04:27:30.321Z,7.15
2023-04-08T04:29:57.919Z,7.13
2023-04-08T04:32:25.803Z,7.11
2023-04-08T04:34:53.385Z,7.11
2023-04-08T04:37:22.449Z,7.11
2023-04-08T04:39:50.493Z,7.09
2023-04-08T04:42:18.160Z,7.09
2023-04-08T04:44:46.324Z,7.08
2023-04-08T04:47:14.179Z,7.07
2023-04-08T04:49:42.092Z,7.05
2023-04-08T04:52:09.836Z,7.08
2023-04-08T04:54:37.668Z,7.09
2023-04-08T04:57:05.642Z,7.11
2023-04-08T04:59:33.600Z,7.15
2023-04-08T05:02:01.439Z,7.18
2023-04-08T05:04:29.156Z,7.21
2023-04-08T05:07:00.030Z,7.22
2023-04-08T05:09:28.972Z,7.25
2023-04-08T05:11:56.928Z,7.27
2023-04-08T05:14:24.818Z,7.28
2023-04-08T05:16:52.570Z,7.29
2023-04-08T05:19:20.411Z,7.29
2023-04-08T05:21:48.725Z,7.32
2023-04-08T05:24:16.524Z,7.33
2023-04-08T05:26:44.381Z,7.33
2023-04-08T05:29:12.089Z,7.35
2023-04-08T05:31:39.898Z,7.36
2023-04-08T05:34:07.576Z,7.40
2023-04-08T05:36:35.160Z,7.41
2023-04-08T05:39:03.489Z,7.43
2023-04-08T05:41:31.364Z,7.43
2023-04-08T05:43:58.974Z,7.40
2023-04-08T05:46:26.591Z,7.28
2023-04-08T05:48:54.556Z,7.13
2023-04-08T05:51:22.165Z,7.01
2023-04-08T05:53:49.942Z,6.94
2023-04-08T05:56:17.589Z,6.90
2023-04-08T05:58:45.629Z,6.89
2023-04-08T06:01:13.586Z,6.87
2023-04-08T06:03:41.334Z,6.81
2023-04-08T06:06:12.601Z,6.82
2023-04-08T06:08:40.679Z,6.83
2023-04-08T06:11:08.394Z,6.83
2023-04-08T06:13:37.308Z,6.84
2023-04-08T06:16:13.513Z,6.81
2023-04-08T06:18:41.635Z,6.75
2023-04-08T06:21:11.391Z,6.72
2023-04-08T06:23:39.042Z,6.69
2023-04-08T06:26:07.118Z,6.63
2023-04-08T06:28:34.834Z,6.62
2023-04-08T06:31:02.767Z,6.62
2023-04-08T06:33:30.702Z,6.60
2023-04-08T06:36:03.877Z,6.59
2023-04-08T06:38:34.694Z,6.57
2023-04-08T06:41:04.597Z,6.56
2023-04-08T06:43:33.527Z,6.53
2023-04-08T06:46:02.589Z,6.52
2023-04-08T06:48:33.277Z,6.56
2023-04-08T06:51:01.410Z,6.59
2023-04-08T06:53:33.518Z,6.61
2023-04-08T06:56:01.394Z,6.63
2023-04-08T06:58:29.892Z,6.64
2023-04-08T07:01:00.615Z,6.68
2023-04-08T07:03:28.381Z,6.69
2023-04-08T07:05:56.247Z,6.69
2023-04-08T07:08:24.094Z,6.64
2023-04-08T07:10:52.819Z,6.64
2023-04-08T07:13:20.571Z,6.65
2023-04-08T07:15:48.373Z,6.66
2023-04-08T07:18:16.149Z,6.66
2023-04-08T07:20:43.740Z,6.63
2023-04-08T07:23:11.481Z,6.61
2023-04-08T07:25:39.068Z,6.60
2023-04-08T07:28:06.874Z,6.62
2023-04-08T07:30:34.619Z,6.63
2023-04-08T07:33:02.379Z,6.62
2023-04-08T07:35:30.159Z,6.60
2023-04-08T07:37:58.166Z,6.59
2023-04-08T07:40:26.169Z,6.58
2023-04-08T07:42:54.316Z,6.60
2023-04-08T07:45:22.272Z,6.63
2023-04-08T07:47:50.037Z,6.66
2023-04-08T07:50:17.911Z,6.65
2023-04-08T07:52:45.685Z,6.67
2023-04-08T07:55:14.025Z,6.69
2023-04-08T07:57:41.878Z,6.72
2023-04-08T08:00:10.315Z,6.76
2023-04-08T08:02:44.560Z,6.77
2023-04-08T08:05:12.434Z,6.76
2023-04-08T08:07:40.368Z,6.78
2023-04-08T08:10:09.186Z,6.81
2023-04-08T08:12:37.654Z,6.83
2023-04-08T08:15:05.993Z,6.87
2023-04-08T08:17:34.046Z,6.91
2023-04-08T08:20:01.835Z,6.94
2023-04-08T08:22:29.426Z,6.95
2023-04-08T08:24:57.987Z,6.98
2023-04-08T08:27:26.273Z,6.99
2023-04-08T08:29:53.855Z,7.00
2023-04-08T08:32:21.713Z,7.04
2023-04-08T08:34:49.258Z,7.09
2023-04-08T08:37:16.922Z,7.17
2023-04-08T08:39:44.762Z,7.22
2023-04-08T08:42:39.771Z,7.30
2023-04-08T08:45:08.341Z,7.35
2023-04-08T08:47:36.131Z,7.40
2023-04-08T08:50:04.257Z,7.47
2023-04-08T08:52:31.963Z,7.55
2023-04-08T08:54:59.919Z,7.63
2023-04-08T08:57:27.508Z,7.71
2023-04-08T08:59:55.191Z,7.82
2023-04-08T09:02:32.368Z,7.90
2023-04-08T09:05:03.655Z,7.90
2023-04-08T09:07:37.070Z,7.91
2023-04-08T09:10:05.380Z,7.95
2023-04-08T09:12:32.900Z,8.01
2023-04-08T09:15:06.769Z,8.08
2023-04-08T09:17:40.121Z,8.11
2023-04-08T09:20:15.295Z,8.12
2023-04-08T09:22:57.446Z,8.19
2023-04-08T09:25:34.113Z,8.28
2023-04-08T09:28:02.874Z,8.33
2023-04-08T09:30:32.567Z,8.41
2023-04-08T09:33:01.406Z,8.48
2023-04-08T09:35:29.131Z,8.54
2023-04-08T09:37:56.895Z,8.64
2023-04-08T09:40:27.746Z,8.76
2023-04-08T09:43:00.810Z,8.85
2023-04-08T09:45:29.055Z,8.94
2023-04-08T09:48:24.249Z,9.26
2023-04-08T09:50:55.658Z,9.60
2023-04-08T09:53:41.551Z,9.85
2023-04-08T09:56:14.110Z,10.13
2023-04-08T09:58:58.885Z,10.38
2023-04-08T10:01:40.328Z,10.61
2023-04-08T10:04:20.807Z,10.81
2023-04-08T10:07:03.534Z,10.91
2023-04-08T10:09:32.750Z,10.84
2023-04-08T10:12:03.502Z,10.83
2023-04-08T10:14:31.384Z,10.86
2023-04-08T10:17:28.568Z,10.90
2023-04-08T10:19:58.560Z,10.93
2023-04-08T10:22:29.291Z,11.05
2023-04-08T10:25:15.671Z,11.21
2023-04-08T10:27:45.033Z,11.28
2023-04-08T10:30:27.840Z,11.37
2023-04-08T10:32:56.954Z,11.42
2023-04-08T10:35:37.138Z,11.54
2023-04-08T10:38:17.748Z,11.63
2023-04-08T10:40:45.978Z,11.72
2023-04-08T10:43:15.836Z,11.73
2023-04-08T10:45:51.399Z,11.86
2023-04-08T10:48:25.117Z,12.05
2023-04-08T10:50:59.599Z,12.17
2023-04-08T10:53:37.761Z,12.17
2023-04-08T10:56:15.366Z,12.12
2023-04-08T10:58:56.259Z,12.16
2023-04-08T11:01:24.056Z,12.21
2023-04-08T11:03:52.192Z,12.34
2023-04-08T11:06:20.181Z,12.48
2023-04-08T11:08:48.196Z,12.57
2023-04-08T11:11:15.889Z,12.68
2023-04-08T11:13:53.236Z,12.79
2023-04-08T11:16:25.987Z,12.80
2023-04-08T11:18:55.608Z,12.84
2023-04-08T11:21:25.791Z,12.99
2023-04-08T11:23:54.008Z,13.14
2023-04-08T11:26:23.258Z,13.25
2023-04-08T11:28:52.056Z,13.40
2023-04-08T11:31:24.671Z,13.57
2023-04-08T11:33:55.481Z,13.71
2023-04-08T11:36:23.176Z,13.87
2023-04-08T11:38:55.341Z,14.03
2023-04-08T11:41:23.805Z,14.21
2023-04-08T11:43:56.656Z,14.32
2023-04-08T11:46:25.331Z,14.27
2023-04-08T11:49:01.635Z,14.21
2023-04-08T11:51:29.505Z,14.15
2023-04-08T11:53:58.543Z,14.14
2023-04-08T11:56:26.735Z,14.18
2023-04-08T11:58:54.549Z,14.22
2023-04-08T12:01:22.482Z,14.25
2023-04-08T12:04:02.409Z,14.26
2023-04-08T12:06:31.668Z,14.19
2023-04-08T12:08:59.820Z,14.08
2023-04-08T12:11:27.495Z,13.98
2023-04-08T12:13:55.404Z,13.83
2023-04-08T12:16:23.245Z,13.66
2023-04-08T12:18:51.043Z,13.54
2023-04-08T12:21:18.876Z,13.52
2023-04-08T12:23:46.663Z,13.55
2023-04-08T12:26:14.635Z,13.55
2023-04-08T12:28:43.463Z,13.49
2023-04-08T12:31:11.190Z,13.40
2023-04-08T12:33:38.856Z,13.35
2023-04-08T12:36:06.931Z,13.28
2023-04-08T12:38:34.619Z,13.24
2023-04-08T12:41:02.220Z,13.26
2023-04-08T12:43:32.820Z,13.25
2023-04-08T12:46:01.878Z,13.19
2023-04-08T12:48:29.549Z,13.18
2023-04-08T12:50:58.772Z,13.18
2023-04-08T12:53:27.593Z,13.21
2023-04-08T12:55:57.450Z,13.21
2023-04-08T12:58:27.833Z,13.22
2023-04-08T13:00:55.651Z,13.23
2023-04-08T13:03:30.385Z,13.26
2023-04-08T13:05:59.154Z,13.32
2023-04-08T13:08:26.859Z,13.38
2023-04-08T13:10:57.252Z,13.40
2023-04-08T13:13:25.098Z,13.42
2023-04-08T13:15:52.978Z,13.50
2023-04-08T13:18:20.847Z,13.56
2023-04-08T13:21:17.996Z,13.62
2023-04-08T13:23:46.880Z,13.76
2023-04-08T13:26:14.616Z,13.91
2023-04-08T13:28:54.191Z,14.05
2023-04-08T13:31:26.140Z,14.15
2023-04-08T13:33:56.941Z,14.23
2023-04-08T13:36:26.875Z,14.37
2023-04-08T13:38:54.887Z,14.51
2023-04-08T13:41:22.731Z,14.66
2023-04-08T13:43:50.604Z,14.78
2023-04-08T13:46:18.330Z,14.95
2023-04-08T13:48:47.306Z,14.99
2023-04-08T13:51:14.878Z,14.96
2023-04-08T13:53:42.477Z,14.89
2023-04-08T13:56:10.641Z,14.81
2023-04-08T13:58:38.434Z,14.76
2023-04-08T14:01:06.201Z,14.65
2023-04-08T14:03:33.908Z,14.58
2023-04-08T14:06:02.113Z,14.51
2023-04-08T14:08:30.251Z,14.50
2023-04-08T14:10:58.073Z,14.56
2023-04-08T14:13:25.854Z,14.62
2023-04-08T14:15:55.056Z,14.60
2023-04-08T14:18:22.768Z,14.59
2023-04-08T14:20:50.421Z,14.64
2023-04-08T14:23:18.084Z,14.73
2023-04-08T14:25:45.796Z,14.80
2023-04-08T14:28:13.592Z,14.89
2023-04-08T14:30:41.676Z,14.98
2023-04-08T14:33:09.524Z,14.93
2023-04-08T14:35:37.842Z,14.79
2023-04-08T14:38:05.858Z,14.71
2023-04-08T14:40:33.488Z,14.64
2023-04-08T14:43:01.514Z,14.55
2023-04-08T14:45:29.179Z,14.48
2023-04-08T14:47:57.898Z,14.45
2023-04-08T14:50:25.726Z,14.39
2023-04-08T14:52:53.500Z,14.30
2023-04-08T14:55:22.582Z,14.28
2023-04-08T14:57:50.542Z,14.30
2023-04-08T15:00:18.276Z,14.29
2023-04-08T15:02:46.125Z,14.30
2023-04-08T15:05:13.878Z,14.27
2023-04-08T15:07:42.906Z,14.29
2023-04-08T15:10:11.063Z,14.33
2023-04-08T15:12:38.687Z,14.35
2023-04-08T15:15:07.267Z,14.37
2023-04-08T15:17:35.179Z,14.36
2023-04-08T15:20:02.929Z,14.35
2023-04-08T15:22:30.674Z,14.35
2023-04-08T15:24:58.424Z,14.33
2023-04-08T15:27:26.279Z,14.27
2023-04-08T15:29:53.914Z,14.24
2023-04-08T15:32:21.496Z,14.19
2023-04-08T15:34:50.680Z,14.15
2023-04-08T15:37:19.028Z,14.11
2023-04-08T15:39:46.885Z,14.08
2023-04-08T15:42:14.458Z,14.13
2023-04-08T15:44:42.221Z,14.11
2023-04-08T15:47:09.991Z,14.09
2023-04-08T15:49:38.573Z,14.07
2023-04-08T15:52:06.612Z,14.02
2023-04-08T15:54:34.554Z,14.04
2023-04-08T15:57:02.636Z,14.04
2023-04-08T15:59:30.729Z,14.05
2023-04-08T16:01:58.808Z,14.05
2023-04-08T16:04:26.636Z,14.08
2023-04-08T16:06:54.370Z,14.11
2023-04-08T16:09:25.645Z,14.16
2023-04-08T16:11:53.781Z,14.13
2023-04-08T16:14:21.840Z,14.09
2023-04-08T16:16:49.497Z,14.03
2023-04-08T16:19:17.546Z,14.01
2023-04-08T16:21:45.412Z,14.01
2023-04-08T16:24:13.114Z,14.00
2023-04-08T16:26:40.959Z,13.97
2023-04-08T16:29:08.602Z,13.94
2023-04-08T16:31:36.531Z,13.88
2023-04-08T16:34:05.018Z,13.86
2023-04-08T16:36:33.676Z,13.84
2023-04-08T16:39:01.456Z,13.76
2023-04-08T16:41:29.133Z,13.73
2023-04-08T16:43:58.015Z,13.64
2023-04-08T16:46:25.605Z,13.55
2023-04-08T16:48:53.217Z,13.52
2023-04-08T16:51:21.150Z,13.50
2023-04-08T16:53:48.944Z,13.49
2023-04-08T16:56:16.974Z,13.48
2023-04-08T16:58:44.648Z,13.48
2023-04-08T17:01:14.199Z,13.48
2023-04-08T17:03:41.986Z,13.46
2023-04-08T17:06:17.309Z,13.46
2023-04-08T17:08:44.903Z,13.45
2023-04-08T17:11:15.550Z,13.43
2023-04-08T17:13:44.504Z,13.38
2023-04-08T17:16:15.675Z,13.35
2023-04-08T17:18:45.234Z,13.30
2023-04-08T17:21:14.079Z,13.26
2023-04-08T17:23:42.187Z,13.25
2023-04-08T17:26:10.692Z,13.24
2023-04-08T17:28:38.405Z,13.20
2023-04-08T17:31:06.340Z,13.11
2023-04-08T17:33:34.104Z,13.01
2023-04-08T17:36:02.981Z,12.92
2023-04-08T17:38:30.663Z,12.84
2023-04-08T17:40:58.449Z,12.81
2023-04-08T17:43:26.272Z,12.79
2023-04-08T17:45:53.955Z,12.79
2023-04-08T17:48:21.560Z,12.78
2023-04-08T17:50:49.196Z,12.76
2023-04-08T17:53:16.881Z,12.74
2023-04-08T17:55:44.421Z,12.72
2023-04-08T17:58:12.077Z,12.70
2023-04-08T18:00:40.638Z,12.66
2023-04-08T18:03:09.149Z,12.61
2023-04-08T18:05:37.058Z,12.57
2023-04-08T18:08:04.713Z,12.52
2023-04-08T18:10:32.436Z,12.42
2023-04-08T18:13:11.357Z,12.35
2023-04-08T18:15:39.677Z,12.29
2023-04-08T18:18:07.309Z,12.28
2023-04-08T18:20:38.241Z,12.26
2023-04-08T18:23:05.889Z,12.25
2023-04-08T18:25:34.574Z,12.25
2023-04-08T18:28:04.509Z,12.23
2023-04-08T18:30:32.260Z,12.20
2023-04-08T18:33:01.979Z,12.19
2023-04-08T18:35:29.838Z,12.16
2023-04-08T18:37:57.525Z,12.14
2023-04-08T18:40:25.559Z,12.13
2023-04-08T18:42:53.116Z,12.13
2023-04-08T18:45:20.762Z,12.12
2023-04-08T18:47:48.390Z,12.07
2023-04-08T18:50:16.088Z,12.05
2023-04-08T18:52:43.678Z,12.01
2023-04-08T18:55:11.756Z,11.95
2023-04-08T18:57:39.481Z,11.90
2023-04-08T19:00:08.780Z,11.87
2023-04-08T19:02:36.432Z,11.85
2023-04-08T19:05:04.412Z,11.80
2023-04-08T19:07:32.541Z,11.79
2023-04-08T19:10:00.421Z,11.75
2023-04-08T19:12:28.108Z,11.72
2023-04-08T19:14:55.897Z,11.68
2023-04-08T19:17:23.513Z,11.65
2023-04-08T19:19:51.920Z,11.61
2023-04-08T19:22:20.831Z,11.55
2023-04-08T19:24:48.349Z,11.53
2023-04-08T19:27:16.270Z,11.47
2023-04-08T19:29:43.939Z,11.41
2023-04-08T19:32:12.554Z,11.33
2023-04-08T19:34:40.449Z,11.24
2023-04-08T19:37:08.628Z,11.15
2023-04-08T19:39:36.222Z,11.05
2023-04-08T19:42:03.897Z,11.01
2023-04-08T19:44:31.691Z,10.99
2023-04-08T19:46:59.972Z,11.00
2023-04-08T19:49:27.788Z,10.99
2023-04-08T19:51:55.828Z,10.96
2023-04-08T19:54:23.905Z,10.95
2023-04-08T19:56:51.617Z,10.94
2023-04-08T19:59:20.939Z,10.91
2023-04-08T20:01:48.602Z,10.90
2023-04-08T20:04:16.424Z,10.87
2023-04-08T20:06:44.106Z,10.85
2023-04-08T20:09:11.665Z,10.85
2023-04-08T20:11:39.312Z,10.79
2023-04-08T20:14:06.899Z,10.73
2023-04-08T20:16:34.680Z,10.70
2023-04-08T20:19:02.416Z,10.66
2023-04-08T20:21:30.069Z,10.64
2023-04-08T20:23:57.724Z,10.64
2023-04-08T20:26:25.346Z,10.64
2023-04-08T20:28:53.322Z,10.61
2023-04-08T20:31:22.435Z,10.59
2023-04-08T20:33:50.205Z,10.56
2023-04-08T20:36:17.757Z,10.52
2023-04-08T20:38:45.590Z,10.47
2023-04-08T20:41:20.017Z,10.47
2023-04-08T20:43:47.669Z,10.46
2023-04-08T20:46:17.012Z,10.46
2023-04-08T20:48:45.003Z,10.48
2023-04-08T20:51:13.421Z,10.50
2023-04-08T20:53:43.111Z,10.52
2023-04-08T20:56:12.044Z,10.51
2023-04-08T20:58:39.630Z,10.52
2023-04-08T21:01:07.822Z,10.51
2023-04-08T21:03:35.573Z,10.53
2023-04-08T21:06:03.387Z,10.52
2023-04-08T21:08:31.011Z,10.51
2023-04-08T21:10:58.677Z,10.50
2023-04-08T21:13:26.263Z,10.49
2023-04-08T21:15:54.882Z,10.47
2023-04-08T21:18:22.535Z,10.44
2023-04-08T21:20:50.170Z,10.43
2023-04-08T21:23:17.797Z,10.43
2023-04-08T21:25:45.355Z,10.38
2023-04-08T21:28:12.938Z,10.35
2023-04-08T21:30:40.540Z,10.34
2023-04-08T21:33:08.499Z,10.36
2023-04-08T21:35:36.364Z,10.38
2023-04-08T21:38:03.984Z,10.39
2023-04-08T21:40:31.552Z,10.38
2023-04-08T21:43:00.365Z,10.38
2023-04-08T21:45:28.107Z,10.36
2023-04-08T21:47:55.822Z,10.36
2023-04-08T21:50:23.529Z,10.36
2023-04-08T21:52:51.108Z,10.33
2023-04-08T21:55:18.706Z,10.33
2023-04-08T21:57:46.820Z,10.33
2023-04-08T22:00:14.906Z,10.29
2023-04-08T22:02:56.445Z,10.27
2023-04-08T22:05:34.459Z,10.24
2023-04-08T22:08:12.346Z,10.23
2023-04-08T22:11:09.767Z,10.20
2023-04-08T22:13:47.402Z,10.19
2023-04-08T22:16:24.998Z,10.18
2023-04-08T22:19:02.629Z,10.17
2023-04-08T22:21:40.176Z,10.18
2023-04-08T22:24:20.229Z,10.16
2023-04-08T22:26:58.672Z,10.17
2023-04-08T22:29:36.303Z,10.18
2023-04-08T22:32:13.945Z,10.18
2023-04-08T22:34:51.723Z,10.17
2023-04-08T22:37:29.380Z,10.18
2023-04-08T22:40:08.520Z,10.19
2023-04-08T22:42:45.997Z,10.21
2023-04-08T22:45:23.694Z,10.21
2023-04-08T22:48:01.246Z,10.19
2023-04-08T22:50:38.958Z,10.16
2023-04-08T22:53:16.679Z,10.11
2023-04-08T22:55:54.206Z,10.08
2023-04-08T22:58:31.858Z,10.07
2023-04-08T23:01:20.711Z,10.05
2023-04-08T23:03:58.277Z,10.01
2023-04-08T23:06:36.633Z,10.02
2023-04-08T23:09:14.115Z,10.01
2023-04-08T23:11:51.550Z,10.02
2023-04-08T23:14:29.107Z,10.00
2023-04-08T23:17:06.683Z,10.00
2023-04-08T23:19:44.171Z,10.00
2023-04-08T23:22:21.618Z,9.99
2023-04-08T23:24:59.101Z,10.00
2023-04-08T23:27:36.640Z,9.98
2023-04-08T23:30:14.130Z,9.99
2023-04-08T23:32:51.611Z,10.02
2023-04-08T23:35:29.216Z,10.03
2023-04-08T23:38:07.744Z,10.04
2023-04-08T23:40:45.304Z,10.04
2023-04-08T23:43:22.739Z,10.00
2023-04-08T23:46:00.253Z,9.96
2023-04-08T23:48:37.718Z,9.94
2023-04-08T23:51:15.544Z,9.92
2023-04-08T23:53:53.287Z,9.90
2023-04-08T23:56:30.715Z,9.90
2023-04-08T23:59:08.194Z,9.90
